sensor_id;sensor_type;location;lat;lon;timestamp;P1;durP1;ratioP1;P2;durP2;ratioP2
38591;SDS011;24356;48.460;11.450;2023-06-22T00:01:17;9.55;;;5.15;;
38591;SDS011;24356;48.460;11.450;2023-06-22T00:03:44;11.63;;;5.60;;
38591;SDS011;24356;48.460;11.450;2023-06-22T00:06:09;9.90;;;5.47;;
38591;SDS011;24356;48.460;11.450;2023-06-22T00:08:35;9.45;;;4.93;;
38591;SDS011;24356;48.460;11.450;2023-06-22T00:11:00;13.20;;;6.25;;
38591;SDS011;24356;48.460;11.450;2023-06-22T00:13:26;15.10;;;6.70;;
38591;SDS011;24356;48.460;11.450;2023-06-22T00:15:52;16.00;;;6.38;;
38591;SDS011;24356;48.460;11.450;2023-06-22T00:18:17;11.18;;;6.45;;
38591;SDS011;24356;48.460;11.450;2023-06-22T00:20:43;13.98;;;6.07;;
38591;SDS011;24356;48.460;11.450;2023-06-22T00:23:11;12.98;;;6.32;;
38591;SDS011;24356;48.460;11.450;2023-06-22T00:25:39;14.55;;;5.57;;
38591;SDS011;24356;48.460;11.450;2023-06-22T00:28:05;12.20;;;6.03;;
38591;SDS011;24356;48.460;11.450;2023-06-22T00:30:32;16.77;;;6.07;;
38591;SDS011;24356;48.460;11.450;2023-06-22T00:32:59;15.35;;;6.38;;
38591;SDS011;24356;48.460;11.450;2023-06-22T00:35:25;11.80;;;5.57;;
38591;SDS011;24356;48.460;11.450;2023-06-22T00:37:58;12.20;;;5.90;;
38591;SDS011;24356;48.460;11.450;2023-06-22T00:40:30;12.82;;;5.60;;
38591;SDS011;24356;48.460;11.450;2023-06-22T00:42:57;14.43;;;7.07;;
38591;SDS011;24356;48.460;11.450;2023-06-22T00:45:23;11.43;;;5.78;;
38591;SDS011;24356;48.460;11.450;2023-06-22T00:47:50;12.68;;;6.05;;
38591;SDS011;24356;48.460;11.450;2023-06-22T00:50:22;11.88;;;6.18;;
38591;SDS011;24356;48.460;11.450;2023-06-22T00:52:53;13.13;;;6.38;;
38591;SDS011;24356;48.460;11.450;2023-06-22T00:55:24;15.07;;;5.97;;
38591;SDS011;24356;48.460;11.450;2023-06-22T00:57:53;15.98;;;5.78;;
38591;SDS011;24356;48.460;11.450;2023-06-22T01:00:23;11.70;;;6.03;;
38591;SDS011;24356;48.460;11.450;2023-06-22T01:02:50;12.02;;;6.00;;
38591;SDS011;24356;48.460;11.450;2023-06-22T01:05:18;16.08;;;5.57;;
38591;SDS011;24356;48.460;11.450;2023-06-22T01:13:08;10.85;;;5.15;;
38591;SDS011;24356;48.460;11.450;2023-06-22T01:15:57;15.23;;;5.65;;
38591;SDS011;24356;48.460;11.450;2023-06-22T01:18:26;11.50;;;6.43;;
38591;SDS011;24356;48.460;11.450;2023-06-22T01:20:55;11.10;;;4.78;;
38591;SDS011;24356;48.460;11.450;2023-06-22T01:26:11;15.93;;;6.47;;
38591;SDS011;24356;48.460;11.450;2023-06-22T01:28:59;11.10;;;5.45;;
38591;SDS011;24356;48.460;11.450;2023-06-22T01:31:27;13.82;;;6.20;;
38591;SDS011;24356;48.460;11.450;2023-06-22T01:33:57;9.82;;;4.93;;
38591;SDS011;24356;48.460;11.450;2023-06-22T01:36:26;14.32;;;6.38;;
38591;SDS011;24356;48.460;11.450;2023-06-22T01:38:53;13.75;;;5.55;;
38591;SDS011;24356;48.460;11.450;2023-06-22T01:41:19;11.52;;;5.25;;
38591;SDS011;24356;48.460;11.450;2023-06-22T01:43:46;14.50;;;5.63;;
38591;SDS011;24356;48.460;11.450;2023-06-22T01:46:14;12.68;;;5.95;;
38591;SDS011;24356;48.460;11.450;2023-06-22T01:48:40;13.05;;;5.80;;
38591;SDS011;24356;48.460;11.450;2023-06-22T01:51:07;12.30;;;5.53;;
38591;SDS011;24356;48.460;11.450;2023-06-22T01:53:32;13.13;;;6.15;;
38591;SDS011;24356;48.460;11.450;2023-06-22T01:55:58;10.55;;;5.72;;
38591;SDS011;24356;48.460;11.450;2023-06-22T01:58:25;13.95;;;5.18;;
38591;SDS011;24356;48.460;11.450;2023-06-22T02:01:09;15.02;;;5.53;;
38591;SDS011;24356;48.460;11.450;2023-06-22T02:03:37;14.90;;;5.30;;
38591;SDS011;24356;48.460;11.450;2023-06-22T02:06:13;15.70;;;5.40;;
38591;SDS011;24356;48.460;11.450;2023-06-22T02:08:46;13.02;;;5.60;;
38591;SDS011;24356;48.460;11.450;2023-06-22T02:11:15;11.82;;;5.55;;
38591;SDS011;24356;48.460;11.450;2023-06-22T02:13:43;10.77;;;4.82;;
38591;SDS011;24356;48.460;11.450;2023-06-22T02:16:10;11.70;;;5.00;;
38591;SDS011;24356;48.460;11.450;2023-06-22T02:18:36;14.55;;;5.45;;
38591;SDS011;24356;48.460;11.450;2023-06-22T02:21:02;10.13;;;5.05;;
38591;SDS011;24356;48.460;11.450;2023-06-22T02:23:28;9.90;;;5.18;;
38591;SDS011;24356;48.460;11.450;2023-06-22T02:25:53;8.27;;;4.90;;
38591;SDS011;24356;48.460;11.450;2023-06-22T02:28:19;15.52;;;5.20;;
38591;SDS011;24356;48.460;11.450;2023-06-22T02:30:45;15.23;;;5.95;;
38591;SDS011;24356;48.460;11.450;2023-06-22T02:33:10;9.35;;;4.43;;
38591;SDS011;24356;48.460;11.450;2023-06-22T02:35:36;10.05;;;4.82;;
38591;SDS011;24356;48.460;11.450;2023-06-22T02:38:02;11.48;;;5.05;;
38591;SDS011;24356;48.460;11.450;2023-06-22T02:40:29;9.63;;;5.38;;
38591;SDS011;24356;48.460;11.450;2023-06-22T02:42:55;11.35;;;5.75;;
38591;SDS011;24356;48.460;11.450;2023-06-22T02:45:23;13.38;;;5.95;;
38591;SDS011;24356;48.460;11.450;2023-06-22T02:47:48;12.32;;;5.78;;
38591;SDS011;24356;48.460;11.450;2023-06-22T02:50:14;13.75;;;6.13;;
38591;SDS011;24356;48.460;11.450;2023-06-22T02:52:40;9.65;;;5.55;;
38591;SDS011;24356;48.460;11.450;2023-06-22T02:55:06;14.82;;;6.20;;
38591;SDS011;24356;48.460;11.450;2023-06-22T02:57:33;14.20;;;6.45;;
38591;SDS011;24356;48.460;11.450;2023-06-22T02:59:59;10.18;;;4.60;;
38591;SDS011;24356;48.460;11.450;2023-06-22T03:02:24;13.77;;;5.97;;
38591;SDS011;24356;48.460;11.450;2023-06-22T03:04:51;9.77;;;5.60;;
38591;SDS011;24356;48.460;11.450;2023-06-22T03:07:18;13.80;;;5.85;;
38591;SDS011;24356;48.460;11.450;2023-06-22T03:09:44;12.52;;;6.07;;
38591;SDS011;24356;48.460;11.450;2023-06-22T03:12:10;11.95;;;5.53;;
38591;SDS011;24356;48.460;11.450;2023-06-22T03:14:36;15.38;;;6.10;;
38591;SDS011;24356;48.460;11.450;2023-06-22T03:17:02;13.85;;;6.15;;
38591;SDS011;24356;48.460;11.450;2023-06-22T03:19:28;12.60;;;5.95;;
38591;SDS011;24356;48.460;11.450;2023-06-22T03:21:56;10.20;;;4.60;;
38591;SDS011;24356;48.460;11.450;2023-06-22T03:24:22;12.25;;;5.57;;
38591;SDS011;24356;48.460;11.450;2023-06-22T03:26:48;9.95;;;4.82;;
38591;SDS011;24356;48.460;11.450;2023-06-22T03:29:14;16.15;;;6.03;;
38591;SDS011;24356;48.460;11.450;2023-06-22T03:31:40;12.23;;;5.68;;
38591;SDS011;24356;48.460;11.450;2023-06-22T03:34:07;11.48;;;5.60;;
38591;SDS011;24356;48.460;11.450;2023-06-22T03:36:33;10.18;;;5.13;;
38591;SDS011;24356;48.460;11.450;2023-06-22T03:38:59;10.70;;;5.10;;
38591;SDS011;24356;48.460;11.450;2023-06-22T03:41:24;11.85;;;5.40;;
38591;SDS011;24356;48.460;11.450;2023-06-22T03:43:50;10.48;;;6.38;;
38591;SDS011;24356;48.460;11.450;2023-06-22T03:46:16;13.02;;;5.13;;
38591;SDS011;24356;48.460;11.450;2023-06-22T03:48:41;11.05;;;5.43;;
38591;SDS011;24356;48.460;11.450;2023-06-22T03:51:07;13.82;;;6.07;;
38591;SDS011;24356;48.460;11.450;2023-06-22T03:53:32;13.02;;;5.55;;
38591;SDS011;24356;48.460;11.450;2023-06-22T03:55:58;10.75;;;5.35;;
38591;SDS011;24356;48.460;11.450;2023-06-22T03:58:24;10.90;;;5.63;;
38591;SDS011;24356;48.460;11.450;2023-06-22T04:00:50;12.40;;;5.90;;
38591;SDS011;24356;48.460;11.450;2023-06-22T04:03:16;14.55;;;6.68;;
38591;SDS011;24356;48.460;11.450;2023-06-22T04:05:46;8.10;;;5.18;;
38591;SDS011;24356;48.460;11.450;2023-06-22T04:08:13;9.70;;;4.75;;
38591;SDS011;24356;48.460;11.450;2023-06-22T04:10:40;10.77;;;4.70;;
38591;SDS011;24356;48.460;11.450;2023-06-22T04:13:07;9.60;;;5.18;;
38591;SDS011;24356;48.460;11.450;2023-06-22T04:15:32;7.25;;;3.97;;
38591;SDS011;24356;48.460;11.450;2023-06-22T04:17:58;9.20;;;4.65;;
38591;SDS011;24356;48.460;11.450;2023-06-22T04:20:23;10.85;;;4.43;;
38591;SDS011;24356;48.460;11.450;2023-06-22T04:22:51;10.73;;;6.22;;
38591;SDS011;24356;48.460;11.450;2023-06-22T04:25:20;10.40;;;5.78;;
38591;SDS011;24356;48.460;11.450;2023-06-22T04:27:46;9.80;;;5.75;;
38591;SDS011;24356;48.460;11.450;2023-06-22T04:30:12;12.80;;;5.82;;
38591;SDS011;24356;48.460;11.450;2023-06-22T04:32:40;13.85;;;5.72;;
38591;SDS011;24356;48.460;11.450;2023-06-22T04:35:06;11.25;;;5.10;;
38591;SDS011;24356;48.460;11.450;2023-06-22T04:37:32;15.98;;;6.57;;
38591;SDS011;24356;48.460;11.450;2023-06-22T04:39:58;11.93;;;6.15;;
38591;SDS011;24356;48.460;11.450;2023-06-22T04:42:26;9.02;;;6.38;;
38591;SDS011;24356;48.460;11.450;2023-06-22T04:44:52;11.55;;;6.82;;
38591;SDS011;24356;48.460;11.450;2023-06-22T04:47:19;15.63;;;7.32;;
38591;SDS011;24356;48.460;11.450;2023-06-22T04:49:44;15.93;;;7.40;;
38591;SDS011;24356;48.460;11.450;2023-06-22T04:52:11;11.57;;;7.35;;
38591;SDS011;24356;48.460;11.450;2023-06-22T04:54:38;13.25;;;6.25;;
38591;SDS011;24356;48.460;11.450;2023-06-22T04:57:06;13.77;;;6.88;;
38591;SDS011;24356;48.460;11.450;2023-06-22T04:59:36;11.80;;;6.97;;
38591;SDS011;24356;48.460;11.450;2023-06-22T05:02:04;14.30;;;7.70;;
38591;SDS011;24356;48.460;11.450;2023-06-22T05:04:31;13.23;;;6.93;;
38591;SDS011;24356;48.460;11.450;2023-06-22T05:06:58;14.65;;;7.70;;
38591;SDS011;24356;48.460;11.450;2023-06-22T05:09:27;10.10;;;5.72;;
38591;SDS011;24356;48.460;11.450;2023-06-22T05:11:54;12.50;;;6.65;;
38591;SDS011;24356;48.460;11.450;2023-06-22T05:14:24;16.08;;;6.15;;
38591;SDS011;24356;48.460;11.450;2023-06-22T05:16:50;12.02;;;5.75;;
38591;SDS011;24356;48.460;11.450;2023-06-22T05:19:17;10.20;;;6.03;;
38591;SDS011;24356;48.460;11.450;2023-06-22T05:21:42;14.82;;;6.63;;
38591;SDS011;24356;48.460;11.450;2023-06-22T05:24:08;11.98;;;5.80;;
38591;SDS011;24356;48.460;11.450;2023-06-22T05:26:34;13.50;;;6.93;;
38591;SDS011;24356;48.460;11.450;2023-06-22T05:29:00;8.80;;;6.30;;
38591;SDS011;24356;48.460;11.450;2023-06-22T05:31:27;13.93;;;7.35;;
38591;SDS011;24356;48.460;11.450;2023-06-22T05:33:53;16.77;;;7.50;;
38591;SDS011;24356;48.460;11.450;2023-06-22T05:36:20;10.77;;;6.50;;
38591;SDS011;24356;48.460;11.450;2023-06-22T05:38:46;15.32;;;7.68;;
38591;SDS011;24356;48.460;11.450;2023-06-22T05:41:14;17.85;;;7.20;;
38591;SDS011;24356;48.460;11.450;2023-06-22T05:43:39;19.02;;;7.50;;
38591;SDS011;24356;48.460;11.450;2023-06-22T05:46:06;17.13;;;8.38;;
38591;SDS011;24356;48.460;11.450;2023-06-22T05:48:31;16.10;;;7.93;;
38591;SDS011;24356;48.460;11.450;2023-06-22T05:50:57;28.73;;;7.95;;
38591;SDS011;24356;48.460;11.450;2023-06-22T05:53:24;16.48;;;7.90;;
38591;SDS011;24356;48.460;11.450;2023-06-22T05:55:49;15.27;;;7.85;;
38591;SDS011;24356;48.460;11.450;2023-06-22T05:58:16;14.50;;;8.45;;
38591;SDS011;24356;48.460;11.450;2023-06-22T06:00:42;18.23;;;7.55;;
38591;SDS011;24356;48.460;11.450;2023-06-22T06:03:08;15.13;;;7.43;;
38591;SDS011;24356;48.460;11.450;2023-06-22T06:05:35;14.23;;;7.55;;
38591;SDS011;24356;48.460;11.450;2023-06-22T06:08:03;16.50;;;7.57;;
38591;SDS011;24356;48.460;11.450;2023-06-22T06:10:31;12.75;;;7.50;;
38591;SDS011;24356;48.460;11.450;2023-06-22T06:12:58;15.55;;;7.30;;
38591;SDS011;24356;48.460;11.450;2023-06-22T06:15:27;19.48;;;6.95;;
38591;SDS011;24356;48.460;11.450;2023-06-22T06:17:53;12.63;;;5.63;;
38591;SDS011;24356;48.460;11.450;2023-06-22T06:20:20;10.23;;;5.90;;
38591;SDS011;24356;48.460;11.450;2023-06-22T06:22:48;12.10;;;5.15;;
38591;SDS011;24356;48.460;11.450;2023-06-22T06:25:14;10.00;;;4.78;;
38591;SDS011;24356;48.460;11.450;2023-06-22T06:27:43;15.13;;;4.53;;
38591;SDS011;24356;48.460;11.450;2023-06-22T06:30:10;10.55;;;5.18;;
38591;SDS011;24356;48.460;11.450;2023-06-22T06:32:36;13.10;;;4.75;;
38591;SDS011;24356;48.460;11.450;2023-06-22T06:35:03;11.48;;;4.18;;
38591;SDS011;24356;48.460;11.450;2023-06-22T06:37:30;9.25;;;4.10;;
38591;SDS011;24356;48.460;11.450;2023-06-22T06:39:56;10.02;;;4.13;;
38591;SDS011;24356;48.460;11.450;2023-06-22T06:42:22;9.13;;;4.10;;
38591;SDS011;24356;48.460;11.450;2023-06-22T06:44:49;9.95;;;4.55;;
38591;SDS011;24356;48.460;11.450;2023-06-22T06:47:15;11.32;;;4.20;;
38591;SDS011;24356;48.460;11.450;2023-06-22T06:49:41;7.80;;;4.50;;
38591;SDS011;24356;48.460;11.450;2023-06-22T06:52:07;11.20;;;4.88;;
38591;SDS011;24356;48.460;11.450;2023-06-22T06:54:33;14.23;;;4.35;;
38591;SDS011;24356;48.460;11.450;2023-06-22T06:56:58;15.65;;;4.72;;
38591;SDS011;24356;48.460;11.450;2023-06-22T06:59:24;13.35;;;4.75;;
38591;SDS011;24356;48.460;11.450;2023-06-22T07:01:51;14.38;;;4.15;;
38591;SDS011;24356;48.460;11.450;2023-06-22T07:04:16;12.63;;;4.70;;
38591;SDS011;24356;48.460;11.450;2023-06-22T07:06:42;13.40;;;4.40;;
38591;SDS011;24356;48.460;11.450;2023-06-22T07:09:08;19.75;;;4.65;;
38591;SDS011;24356;48.460;11.450;2023-06-22T07:11:35;13.18;;;4.70;;
38591;SDS011;24356;48.460;11.450;2023-06-22T07:14:01;11.13;;;4.82;;
38591;SDS011;24356;48.460;11.450;2023-06-22T07:16:28;13.77;;;4.53;;
38591;SDS011;24356;48.460;11.450;2023-06-22T07:18:55;12.55;;;4.53;;
38591;SDS011;24356;48.460;11.450;2023-06-22T07:21:20;13.73;;;4.40;;
38591;SDS011;24356;48.460;11.450;2023-06-22T07:23:46;11.98;;;4.70;;
38591;SDS011;24356;48.460;11.450;2023-06-22T07:26:11;10.00;;;4.45;;
38591;SDS011;24356;48.460;11.450;2023-06-22T07:28:38;15.25;;;4.75;;
38591;SDS011;24356;48.460;11.450;2023-06-22T07:31:06;13.63;;;4.40;;
38591;SDS011;24356;48.460;11.450;2023-06-22T07:33:31;11.63;;;4.43;;
38591;SDS011;24356;48.460;11.450;2023-06-22T07:35:57;12.13;;;4.57;;
38591;SDS011;24356;48.460;11.450;2023-06-22T07:38:22;10.40;;;4.63;;
38591;SDS011;24356;48.460;11.450;2023-06-22T07:40:49;10.73;;;4.63;;
38591;SDS011;24356;48.460;11.450;2023-06-22T07:43:15;12.52;;;5.28;;
38591;SDS011;24356;48.460;11.450;2023-06-22T07:45:47;10.88;;;4.30;;
38591;SDS011;24356;48.460;11.450;2023-06-22T07:48:17;10.93;;;4.45;;
38591;SDS011;24356;48.460;11.450;2023-06-22T07:50:45;11.77;;;4.50;;
38591;SDS011;24356;48.460;11.450;2023-06-22T07:53:10;10.98;;;4.05;;
38591;SDS011;24356;48.460;11.450;2023-06-22T07:55:36;13.45;;;4.15;;
38591;SDS011;24356;48.460;11.450;2023-06-22T07:58:02;10.65;;;4.20;;
38591;SDS011;24356;48.460;11.450;2023-06-22T08:00:27;10.13;;;4.30;;
38591;SDS011;24356;48.460;11.450;2023-06-22T08:02:54;10.18;;;4.38;;
38591;SDS011;24356;48.460;11.450;2023-06-22T08:05:20;14.00;;;4.82;;
38591;SDS011;24356;48.460;11.450;2023-06-22T08:07:46;8.98;;;4.30;;
38591;SDS011;24356;48.460;11.450;2023-06-22T08:10:12;11.65;;;4.47;;
38591;SDS011;24356;48.460;11.450;2023-06-22T08:12:38;10.75;;;4.45;;
38591;SDS011;24356;48.460;11.450;2023-06-22T08:15:05;10.80;;;3.97;;
38591;SDS011;24356;48.460;11.450;2023-06-22T08:17:32;14.95;;;4.47;;
38591;SDS011;24356;48.460;11.450;2023-06-22T08:19:58;10.02;;;4.15;;
38591;SDS011;24356;48.460;11.450;2023-06-22T08:22:24;11.15;;;4.75;;
38591;SDS011;24356;48.460;11.450;2023-06-22T08:24:50;9.43;;;3.88;;
38591;SDS011;24356;48.460;11.450;2023-06-22T08:27:15;11.07;;;4.40;;
38591;SDS011;24356;48.460;11.450;2023-06-22T08:29:43;10.65;;;4.07;;
38591;SDS011;24356;48.460;11.450;2023-06-22T08:32:10;10.25;;;4.20;;
38591;SDS011;24356;48.460;11.450;2023-06-22T08:34:36;14.27;;;4.15;;
38591;SDS011;24356;48.460;11.450;2023-06-22T08:37:03;9.48;;;3.72;;
38591;SDS011;24356;48.460;11.450;2023-06-22T08:39:31;12.27;;;4.20;;
38591;SDS011;24356;48.460;11.450;2023-06-22T08:41:57;14.50;;;4.10;;
38591;SDS011;24356;48.460;11.450;2023-06-22T08:44:23;9.27;;;3.60;;
38591;SDS011;24356;48.460;11.450;2023-06-22T08:46:48;7.22;;;4.35;;
38591;SDS011;24356;48.460;11.450;2023-06-22T08:49:14;10.75;;;4.00;;
38591;SDS011;24356;48.460;11.450;2023-06-22T08:51:40;12.10;;;4.15;;
38591;SDS011;24356;48.460;11.450;2023-06-22T08:54:05;13.60;;;3.92;;
38591;SDS011;24356;48.460;11.450;2023-06-22T08:56:31;6.60;;;3.72;;
38591;SDS011;24356;48.460;11.450;2023-06-22T08:58:58;9.35;;;3.90;;
38591;SDS011;24356;48.460;11.450;2023-06-22T09:01:23;9.05;;;3.75;;
38591;SDS011;24356;48.460;11.450;2023-06-22T09:03:49;13.10;;;4.25;;
38591;SDS011;24356;48.460;11.450;2023-06-22T09:06:19;13.02;;;4.00;;
38591;SDS011;24356;48.460;11.450;2023-06-22T09:08:46;13.63;;;4.28;;
38591;SDS011;24356;48.460;11.450;2023-06-22T09:11:12;15.23;;;3.72;;
38591;SDS011;24356;48.460;11.450;2023-06-22T09:13:38;10.18;;;4.05;;
38591;SDS011;24356;48.460;11.450;2023-06-22T09:16:04;7.75;;;3.70;;
38591;SDS011;24356;48.460;11.450;2023-06-22T09:18:29;11.85;;;3.95;;
38591;SDS011;24356;48.460;11.450;2023-06-22T09:20:55;11.80;;;4.15;;
38591;SDS011;24356;48.460;11.450;2023-06-22T09:23:21;10.57;;;4.00;;
38591;SDS011;24356;48.460;11.450;2023-06-22T09:25:49;10.73;;;3.78;;
38591;SDS011;24356;48.460;11.450;2023-06-22T09:28:14;13.07;;;4.15;;
38591;SDS011;24356;48.460;11.450;2023-06-22T09:30:42;15.90;;;3.63;;
38591;SDS011;24356;48.460;11.450;2023-06-22T09:33:09;16.52;;;4.05;;
38591;SDS011;24356;48.460;11.450;2023-06-22T09:35:35;12.10;;;3.90;;
38591;SDS011;24356;48.460;11.450;2023-06-22T09:38:00;9.25;;;3.70;;
38591;SDS011;24356;48.460;11.450;2023-06-22T09:40:26;12.63;;;3.90;;
38591;SDS011;24356;48.460;11.450;2023-06-22T09:42:51;11.23;;;3.80;;
38591;SDS011;24356;48.460;11.450;2023-06-22T09:45:17;10.52;;;3.60;;
38591;SDS011;24356;48.460;11.450;2023-06-22T09:47:43;12.15;;;4.05;;
38591;SDS011;24356;48.460;11.450;2023-06-22T09:50:10;11.52;;;3.70;;
38591;SDS011;24356;48.460;11.450;2023-06-22T09:52:35;7.82;;;3.75;;
38591;SDS011;24356;48.460;11.450;2023-06-22T09:55:01;15.02;;;3.78;;
38591;SDS011;24356;48.460;11.450;2023-06-22T09:57:28;14.75;;;4.20;;
38591;SDS011;24356;48.460;11.450;2023-06-22T09:59:54;10.25;;;3.70;;
38591;SDS011;24356;48.460;11.450;2023-06-22T10:02:20;14.45;;;4.20;;
38591;SDS011;24356;48.460;11.450;2023-06-22T10:04:45;13.57;;;3.80;;
38591;SDS011;24356;48.460;11.450;2023-06-22T10:07:11;13.55;;;3.95;;
38591;SDS011;24356;48.460;11.450;2023-06-22T10:12:12;7.82;;;3.58;;
38591;SDS011;24356;48.460;11.450;2023-06-22T10:14:38;10.75;;;3.88;;
38591;SDS011;24356;48.460;11.450;2023-06-22T10:17:03;10.98;;;3.92;;
38591;SDS011;24356;48.460;11.450;2023-06-22T10:19:29;11.20;;;3.72;;
38591;SDS011;24356;48.460;11.450;2023-06-22T10:21:54;19.65;;;4.10;;
38591;SDS011;24356;48.460;11.450;2023-06-22T10:24:21;9.48;;;3.60;;
38591;SDS011;24356;48.460;11.450;2023-06-22T10:26:47;9.35;;;3.47;;
38591;SDS011;24356;48.460;11.450;2023-06-22T10:29:12;8.52;;;3.58;;
38591;SDS011;24356;48.460;11.450;2023-06-22T10:31:38;13.15;;;4.38;;
38591;SDS011;24356;48.460;11.450;2023-06-22T10:34:04;10.10;;;3.60;;
38591;SDS011;24356;48.460;11.450;2023-06-22T10:36:29;15.60;;;4.15;;
38591;SDS011;24356;48.460;11.450;2023-06-22T10:38:55;13.63;;;4.10;;
38591;SDS011;24356;48.460;11.450;2023-06-22T10:41:20;17.73;;;4.38;;
38591;SDS011;24356;48.460;11.450;2023-06-22T10:43:46;13.02;;;4.00;;
38591;SDS011;24356;48.460;11.450;2023-06-22T10:46:12;10.57;;;3.83;;
38591;SDS011;24356;48.460;11.450;2023-06-22T10:48:37;14.57;;;4.00;;
38591;SDS011;24356;48.460;11.450;2023-06-22T10:51:03;11.35;;;3.97;;
38591;SDS011;24356;48.460;11.450;2023-06-22T10:53:28;11.65;;;3.67;;
38591;SDS011;24356;48.460;11.450;2023-06-22T10:55:54;16.52;;;4.25;;
38591;SDS011;24356;48.460;11.450;2023-06-22T10:58:20;9.60;;;3.40;;
38591;SDS011;24356;48.460;11.450;2023-06-22T11:00:45;10.45;;;4.20;;
38591;SDS011;24356;48.460;11.450;2023-06-22T11:03:11;12.40;;;4.15;;
38591;SDS011;24356;48.460;11.450;2023-06-22T11:05:38;9.70;;;3.88;;
38591;SDS011;24356;48.460;11.450;2023-06-22T11:08:03;14.60;;;4.07;;
38591;SDS011;24356;48.460;11.450;2023-06-22T11:10:29;14.43;;;4.07;;
38591;SDS011;24356;48.460;11.450;2023-06-22T11:12:55;13.38;;;4.10;;
38591;SDS011;24356;48.460;11.450;2023-06-22T11:15:22;11.68;;;3.90;;
38591;SDS011;24356;48.460;11.450;2023-06-22T11:17:48;15.88;;;4.20;;
38591;SDS011;24356;48.460;11.450;2023-06-22T11:20:14;12.35;;;4.22;;
38591;SDS011;24356;48.460;11.450;2023-06-22T11:22:40;12.77;;;3.72;;
38591;SDS011;24356;48.460;11.450;2023-06-22T11:25:06;10.75;;;4.03;;
38591;SDS011;24356;48.460;11.450;2023-06-22T11:27:33;14.93;;;4.10;;
38591;SDS011;24356;48.460;11.450;2023-06-22T11:29:58;13.98;;;4.00;;
38591;SDS011;24356;48.460;11.450;2023-06-22T11:32:25;11.15;;;4.28;;
38591;SDS011;24356;48.460;11.450;2023-06-22T11:34:51;10.90;;;4.05;;
38591;SDS011;24356;48.460;11.450;2023-06-22T11:37:16;11.30;;;4.20;;
38591;SDS011;24356;48.460;11.450;2023-06-22T11:39:42;18.92;;;4.60;;
38591;SDS011;24356;48.460;11.450;2023-06-22T11:42:08;13.98;;;4.05;;
38591;SDS011;24356;48.460;11.450;2023-06-22T11:44:34;14.68;;;4.00;;
38591;SDS011;24356;48.460;11.450;2023-06-22T11:47:00;12.40;;;3.80;;
38591;SDS011;24356;48.460;11.450;2023-06-22T11:49:27;10.93;;;4.13;;
38591;SDS011;24356;48.460;11.450;2023-06-22T11:51:53;13.60;;;4.13;;
38591;SDS011;24356;48.460;11.450;2023-06-22T11:54:18;15.02;;;4.07;;
38591;SDS011;24356;48.460;11.450;2023-06-22T11:56:44;17.45;;;4.35;;
38591;SDS011;24356;48.460;11.450;2023-06-22T11:59:09;14.30;;;4.20;;
38591;SDS011;24356;48.460;11.450;2023-06-22T12:01:35;11.93;;;4.05;;
38591;SDS011;24356;48.460;11.450;2023-06-22T12:04:01;11.95;;;3.92;;
38591;SDS011;24356;48.460;11.450;2023-06-22T12:06:30;9.68;;;4.00;;
38591;SDS011;24356;48.460;11.450;2023-06-22T12:08:56;17.83;;;4.45;;
38591;SDS011;24356;48.460;11.450;2023-06-22T12:11:22;10.50;;;4.13;;
38591;SDS011;24356;48.460;11.450;2023-06-22T12:13:47;12.95;;;3.80;;
38591;SDS011;24356;48.460;11.450;2023-06-22T12:16:13;14.68;;;4.05;;
38591;SDS011;24356;48.460;11.450;2023-06-22T12:18:38;8.27;;;3.80;;
38591;SDS011;24356;48.460;11.450;2023-06-22T12:21:04;15.13;;;4.15;;
38591;SDS011;24356;48.460;11.450;2023-06-22T12:23:29;17.10;;;4.40;;
38591;SDS011;24356;48.460;11.450;2023-06-22T12:25:55;12.98;;;4.18;;
38591;SDS011;24356;48.460;11.450;2023-06-22T12:28:20;9.75;;;3.90;;
38591;SDS011;24356;48.460;11.450;2023-06-22T12:30:48;17.70;;;4.28;;
38591;SDS011;24356;48.460;11.450;2023-06-22T12:33:13;13.45;;;4.05;;
38591;SDS011;24356;48.460;11.450;2023-06-22T12:35:39;12.23;;;4.15;;
38591;SDS011;24356;48.460;11.450;2023-06-22T12:38:05;17.27;;;4.15;;
38591;SDS011;24356;48.460;11.450;2023-06-22T12:40:32;14.63;;;4.43;;
38591;SDS011;24356;48.460;11.450;2023-06-22T12:42:58;14.43;;;4.10;;
38591;SDS011;24356;48.460;11.450;2023-06-22T12:45:23;15.15;;;4.13;;
38591;SDS011;24356;48.460;11.450;2023-06-22T12:47:50;18.58;;;4.40;;
38591;SDS011;24356;48.460;11.450;2023-06-22T12:50:15;10.55;;;3.90;;
38591;SDS011;24356;48.460;11.450;2023-06-22T12:52:41;9.88;;;3.88;;
38591;SDS011;24356;48.460;11.450;2023-06-22T12:55:07;13.20;;;4.20;;
38591;SDS011;24356;48.460;11.450;2023-06-22T12:57:33;18.23;;;4.20;;
38591;SDS011;24356;48.460;11.450;2023-06-22T12:59:58;15.32;;;4.65;;
38591;SDS011;24356;48.460;11.450;2023-06-22T13:02:25;15.57;;;4.05;;
38591;SDS011;24356;48.460;11.450;2023-06-22T13:04:51;14.50;;;3.83;;
38591;SDS011;24356;48.460;11.450;2023-06-22T13:07:16;14.65;;;4.18;;
38591;SDS011;24356;48.460;11.450;2023-06-22T13:09:42;12.27;;;4.10;;
38591;SDS011;24356;48.460;11.450;2023-06-22T13:12:08;14.23;;;4.30;;
38591;SDS011;24356;48.460;11.450;2023-06-22T13:14:33;12.63;;;4.00;;
38591;SDS011;24356;48.460;11.450;2023-06-22T13:16:59;14.80;;;3.90;;
38591;SDS011;24356;48.460;11.450;2023-06-22T13:19:24;15.85;;;4.03;;
38591;SDS011;24356;48.460;11.450;2023-06-22T13:21:53;16.52;;;4.07;;
38591;SDS011;24356;48.460;11.450;2023-06-22T13:24:19;12.68;;;4.43;;
38591;SDS011;24356;48.460;11.450;2023-06-22T13:26:44;16.73;;;3.75;;
38591;SDS011;24356;48.460;11.450;2023-06-22T13:29:11;13.77;;;5.15;;
38591;SDS011;24356;48.460;11.450;2023-06-22T13:31:37;11.70;;;4.20;;
38591;SDS011;24356;48.460;11.450;2023-06-22T13:34:02;22.30;;;4.45;;
38591;SDS011;24356;48.460;11.450;2023-06-22T13:36:29;9.80;;;3.97;;
38591;SDS011;24356;48.460;11.450;2023-06-22T13:38:55;11.82;;;3.80;;
38591;SDS011;24356;48.460;11.450;2023-06-22T13:41:21;10.60;;;3.85;;
38591;SDS011;24356;48.460;11.450;2023-06-22T13:43:46;14.88;;;4.47;;
38591;SDS011;24356;48.460;11.450;2023-06-22T13:46:12;10.77;;;3.70;;
38591;SDS011;24356;48.460;11.450;2023-06-22T13:48:38;13.90;;;4.10;;
38591;SDS011;24356;48.460;11.450;2023-06-22T13:51:03;14.73;;;3.83;;
38591;SDS011;24356;48.460;11.450;2023-06-22T13:53:29;15.55;;;4.07;;
38591;SDS011;24356;48.460;11.450;2023-06-22T13:55:55;15.32;;;4.32;;
38591;SDS011;24356;48.460;11.450;2023-06-22T13:58:21;14.38;;;4.45;;
38591;SDS011;24356;48.460;11.450;2023-06-22T14:00:46;13.18;;;4.03;;
38591;SDS011;24356;48.460;11.450;2023-06-22T14:03:14;10.40;;;4.32;;
38591;SDS011;24356;48.460;11.450;2023-06-22T14:05:41;17.27;;;3.85;;
38591;SDS011;24356;48.460;11.450;2023-06-22T14:08:07;10.85;;;4.40;;
38591;SDS011;24356;48.460;11.450;2023-06-22T14:10:43;15.52;;;3.95;;
38591;SDS011;24356;48.460;11.450;2023-06-22T14:16:50;15.48;;;4.18;;
38591;SDS011;24356;48.460;11.450;2023-06-22T14:19:18;21.55;;;4.57;;
38591;SDS011;24356;48.460;11.450;2023-06-22T14:21:44;14.77;;;4.30;;
38591;SDS011;24356;48.460;11.450;2023-06-22T14:24:09;15.68;;;4.30;;
38591;SDS011;24356;48.460;11.450;2023-06-22T14:26:35;10.10;;;3.85;;
38591;SDS011;24356;48.460;11.450;2023-06-22T14:29:00;14.35;;;4.20;;
38591;SDS011;24356;48.460;11.450;2023-06-22T14:31:26;18.38;;;4.13;;
38591;SDS011;24356;48.460;11.450;2023-06-22T14:33:52;10.77;;;4.32;;